sensor_id;sensor_type;location;lat;lon;timestamp;temperature;humidity
12223;DHT22;6174;49.058;8.524;2023-09-19T05:02:56;17.70;99.90
12223;DHT22;6174;49.058;8.524;2023-09-19T05:05:23;17.60;99.90
12223;DHT22;6174;49.058;8.524;2023-09-19T05:07:51;17.50;99.90
12223;DHT22;6174;49.058;8.524;2023-09-19T05:10:19;17.60;99.90
12223;DHT22;6174;49.058;8.524;2023-09-19T05:12:47;17.60;99.90
12223;DHT22;6174;49.058;8.524;2023-09-19T05:15:18;17.60;99.90
12223;DHT22;6174;49.058;8.524;2023-09-19T05:17:48;17.60;99.90
12223;DHT22;6174;49.058;8.524;2023-09-19T05:20:23;17.60;99.90
12223;DHT22;6174;49.058;8.524;2023-09-19T05:22:58;17.60;99.90
12223;DHT22;6174;49.058;8.524;2023-09-19T05:25:38;17.60;99.90
12223;DHT22;6174;49.058;8.524;2023-09-19T05:28:17;17.80;99.90
12223;DHT22;6174;49.058;8.524;2023-09-19T05:30:47;17.60;99.90
12223;DHT22;6174;49.058;8.524;2023-09-19T05:33:33;17.60;99.90
12223;DHT22;6174;49.058;8.524;2023-09-19T05:36:00;17.60;99.90
12223;DHT22;6174;49.058;8.524;2023-09-19T05:38:29;17.60;99.90
12223;DHT22;6174;49.058;8.524;2023-09-19T05:40:56;17.60;99.90
12223;DHT22;6174;49.058;8.524;2023-09-19T05:43:23;17.80;99.90
12223;DHT22;6174;49.058;8.524;2023-09-19T05:46:09;17.60;99.90
12223;DHT22;6174;49.058;8.524;2023-09-19T05:48:41;17.50;99.90
12223;DHT22;6174;49.058;8.524;2023-09-19T05:51:56;17.50;99.90
12223;DHT22;6174;49.058;8.524;2023-09-19T05:54:15;17.50;99.90
12223;DHT22;6174;49.058;8.524;2023-09-19T05:59:13;17.50;99.90
12223;DHT22;6174;49.058;8.524;2023-09-19T06:00:11;17.50;99.90
12223;DHT22;6174;49.058;8.524;2023-09-19T06:06:05;17.40;99.90
12223;DHT22;6174;49.058;8.524;2023-09-19T06:10:13;17.30;99.90
12223;DHT22;6174;49.058;8.524;2023-09-19T06:12:11;17.60;99.90
12223;DHT22;6174;49.058;8.524;2023-09-19T06:14:42;17.40;99.90
12223;DHT22;6174;49.058;8.524;2023-09-19T06:17:58;17.40;99.90
12223;DHT22;6174;49.058;8.524;2023-09-19T06:20:27;17.60;99.90
12223;DHT22;6174;49.058;8.524;2023-09-19T06:22:56;17.40;99.90
12223;DHT22;6174;49.058;8.524;2023-09-19T06:25:30;17.40;99.90
12223;DHT22;6174;49.058;8.524;2023-09-19T06:28:10;17.40;99.90
12223;DHT22;6174;49.058;8.524;2023-09-19T06:30:50;17.40;99.90
12223;DHT22;6174;49.058;8.524;2023-09-19T06:33:17;17.40;99.90
12223;DHT22;6174;49.058;8.524;2023-09-19T06:35:45;17.50;99.90
12223;DHT22;6174;49.058;8.524;2023-09-19T06:38:30;17.40;99.90
12223;DHT22;6174;49.058;8.524;2023-09-19T06:41:08;17.40;99.90
12223;DHT22;6174;49.058;8.524;2023-09-19T06:43:55;17.30;99.90
12223;DHT22;6174;49.058;8.524;2023-09-19T06:46:32;17.40;99.90
12223;DHT22;6174;49.058;8.524;2023-09-19T06:49:12;17.30;99.90
12223;DHT22;6174;49.058;8.524;2023-09-19T06:51:41;17.20;99.90
12223;DHT22;6174;49.058;8.524;2023-09-19T06:54:23;17.00;99.90
12223;DHT22;6174;49.058;8.524;2023-09-19T06:56:56;17.20;99.90
12223;DHT22;6174;49.058;8.524;2023-09-19T06:59:25;17.40;99.90
12223;DHT22;6174;49.058;8.524;2023-09-19T07:02:25;17.10;99.90
12223;DHT22;6174;49.058;8.524;2023-09-19T07:04:53;17.00;99.90
12223;DHT22;6174;49.058;8.524;2023-09-19T07:07:31;17.20;99.90
12223;DHT22;6174;49.058;8.524;2023-09-19T07:10:03;17.10;99.90
12223;DHT22;6174;49.058;8.524;2023-09-19T07:12:42;17.10;99.90
12223;DHT22;6174;49.058;8.524;2023-09-19T07:15:09;17.20;99.90
12223;DHT22;6174;49.058;8.524;2023-09-19T07:17:41;17.20;99.90
12223;DHT22;6174;49.058;8.524;2023-09-19T07:20:09;17.20;99.90
12223;DHT22;6174;49.058;8.524;2023-09-19T07:22:43;17.20;99.90
12223;DHT22;6174;49.058;8.524;2023-09-19T07:25:17;17.20;99.90
12223;DHT22;6174;49.058;8.524;2023-09-19T07:27:47;17.30;99.90
12223;DHT22;6174;49.058;8.524;2023-09-19T07:30:14;17.40;99.90
12223;DHT22;6174;49.058;8.524;2023-09-19T07:32:41;17.40;99.90
12223;DHT22;6174;49.058;8.524;2023-09-19T07:38:25;17.50;99.90
12223;DHT22;6174;49.058;8.524;2023-09-19T07:41:00;17.50;99.90
12223;DHT22;6174;49.058;8.524;2023-09-19T07:43:31;17.60;99.90
12223;DHT22;6174;49.058;8.524;2023-09-19T07:46:03;17.70;99.90
12223;DHT22;6174;49.058;8.524;2023-09-19T07:48:31;17.70;99.90
12223;DHT22;6174;49.058;8.524;2023-09-19T07:51:08;17.90;99.90
12223;DHT22;6174;49.058;8.524;2023-09-19T07:53:39;18.00;99.90
12223;DHT22;6174;49.058;8.524;2023-09-19T07:56:09;18.00;99.90
12223;DHT22;6174;49.058;8.524;2023-09-19T07:58:48;18.00;99.90
12223;DHT22;6174;49.058;8.524;2023-09-19T08:01:15;18.00;99.90
12223;DHT22;6174;49.058;8.524;2023-09-19T08:03:42;18.20;99.90
12223;DHT22;6174;49.058;8.524;2023-09-19T08:06:10;18.00;99.90
12223;DHT22;6174;49.058;8.524;2023-09-19T08:08:39;18.10;99.90
12223;DHT22;6174;49.058;8.524;2023-09-19T08:19:53;18.20;99.90
12223;DHT22;6174;49.058;8.524;2023-09-19T08:22:40;18.10;99.90
12223;DHT22;6174;49.058;8.524;2023-09-19T08:25:09;18.20;99.90
12223;DHT22;6174;49.058;8.524;2023-09-19T08:28:57;18.20;99.90
12223;DHT22;6174;49.058;8.524;2023-09-19T08:31:26;18.40;99.90
12223;DHT22;6174;49.058;8.524;2023-09-19T08:33:55;18.40;99.90
12223;DHT22;6174;49.058;8.524;2023-09-19T08:36:46;18.50;99.90
12223;DHT22;6174;49.058;8.524;2023-09-19T08:42:54;18.40;99.90
12223;DHT22;6174;49.058;8.524;2023-09-19T08:45:37;18.70;99.90
12223;DHT22;6174;49.058;8.524;2023-09-19T08:55:18;18.60;99.90
12223;DHT22;6174;49.058;8.524;2023-09-19T08:58:01;18.60;99.90
12223;DHT22;6174;49.058;8.524;2023-09-19T09:00:33;18.40;99.90
12223;DHT22;6174;49.058;8.524;2023-09-19T09:06:54;18.50;99.90
12223;DHT22;6174;49.058;8.524;2023-09-19T09:09:30;18.70;99.90
12223;DHT22;6174;49.058;8.524;2023-09-19T09:11:58;18.70;99.90
12223;DHT22;6174;49.058;8.524;2023-09-19T09:14:26;18.80;99.90
12223;DHT22;6174;49.058;8.524;2023-09-19T09:16:53;19.00;99.90
12223;DHT22;6174;49.058;8.524;2023-09-19T09:19:44;19.20;99.90
12223;DHT22;6174;49.058;8.524;2023-09-19T09:22:25;19.30;99.90
12223;DHT22;6174;49.058;8.524;2023-09-19T09:24:52;19.40;99.90
12223;DHT22;6174;49.058;8.524;2023-09-19T09:31:29;19.60;99.90
12223;DHT22;6174;49.058;8.524;2023-09-19T09:34:17;19.50;99.90
12223;DHT22;6174;49.058;8.524;2023-09-19T09:43:03;19.20;99.90
12223;DHT22;6174;49.058;8.524;2023-09-19T09:45:39;19.20;99.90
12223;DHT22;6174;49.058;8.524;2023-09-19T09:48:30;19.20;99.90
12223;DHT22;6174;49.058;8.524;2023-09-19T09:51:28;19.40;99.90
12223;DHT22;6174;49.058;8.524;2023-09-19T09:54:15;19.50;99.90
12223;DHT22;6174;49.058;8.524;2023-09-19T10:06:42;20.10;99.90
12223;DHT22;6174;49.058;8.524;2023-09-19T10:09:13;20.00;99.90
12223;DHT22;6174;49.058;8.524;2023-09-19T10:11:48;20.00;99.90
12223;DHT22;6174;49.058;8.524;2023-09-19T10:14:25;20.10;99.90
12223;DHT22;6174;49.058;8.524;2023-09-19T10:16:58;20.20;99.90
12223;DHT22;6174;49.058;8.524;2023-09-19T10:22:46;20.00;99.60
12223;DHT22;6174;49.058;8.524;2023-09-19T10:25:24;20.00;99.10
12223;DHT22;6174;49.058;8.524;2023-09-19T10:27:55;20.20;99.80
12223;DHT22;6174;49.058;8.524;2023-09-19T10:30:29;19.80;99.90
12223;DHT22;6174;49.058;8.524;2023-09-19T10:33:01;19.50;99.90
12223;DHT22;6174;49.058;8.524;2023-09-19T10:35:49;19.70;99.90
12223;DHT22;6174;49.058;8.524;2023-09-19T10:38:27;19.70;99.90
12223;DHT22;6174;49.058;8.524;2023-09-19T10:41:15;19.90;99.90
12223;DHT22;6174;49.058;8.524;2023-09-19T10:43:43;20.10;99.60
12223;DHT22;6174;49.058;8.524;2023-09-19T10:46:12;20.20;99.90
12223;DHT22;6174;49.058;8.524;2023-09-19T10:48:40;20.40;99.90
12223;DHT22;6174;49.058;8.524;2023-09-19T10:51:26;20.40;99.40
12223;DHT22;6174;49.058;8.524;2023-09-19T10:54:01;20.60;99.30
12223;DHT22;6174;49.058;8.524;2023-09-19T10:56:31;20.70;99.50
12223;DHT22;6174;49.058;8.524;2023-09-19T10:59:18;20.70;98.20
12223;DHT22;6174;49.058;8.524;2023-09-19T11:01:50;20.60;98.50
12223;DHT22;6174;49.058;8.524;2023-09-19T11:04:25;20.40;98.20
12223;DHT22;6174;49.058;8.524;2023-09-19T11:07:04;20.30;98.80
12223;DHT22;6174;49.058;8.524;2023-09-19T11:09:48;20.20;99.00
12223;DHT22;6174;49.058;8.524;2023-09-19T11:16:02;20.10;98.90
12223;DHT22;6174;49.058;8.524;2023-09-19T11:18:52;20.10;99.50
12223;DHT22;6174;49.058;8.524;2023-09-19T11:21:53;20.10;99.70
12223;DHT22;6174;49.058;8.524;2023-09-19T11:24:31;20.10;99.10
12223;DHT22;6174;49.058;8.524;2023-09-19T11:27:15;20.20;99.10
12223;DHT22;6174;49.058;8.524;2023-09-19T11:29:43;20.40;99.30
12223;DHT22;6174;49.058;8.524;2023-09-19T11:32:10;20.50;98.60
12223;DHT22;6174;49.058;8.524;2023-09-19T11:34:47;20.40;97.90
12223;DHT22;6174;49.058;8.524;2023-09-19T11:47:10;20.30;98.20
12223;DHT22;6174;49.058;8.524;2023-09-19T11:49:40;20.40;98.40
12223;DHT22;6174;49.058;8.524;2023-09-19T11:52:08;20.60;98.30
12223;DHT22;6174;49.058;8.524;2023-09-19T11:54:49;20.60;98.10
12223;DHT22;6174;49.058;8.524;2023-09-19T11:57:22;20.60;97.70
12223;DHT22;6174;49.058;8.524;2023-09-19T12:00:08;20.60;98.90
12223;DHT22;6174;49.058;8.524;2023-09-19T12:03:18;20.50;98.00
12223;DHT22;6174;49.058;8.524;2023-09-19T12:05:47;20.40;98.70
12223;DHT22;6174;49.058;8.524;2023-09-19T12:08:18;20.40;99.10
12223;DHT22;6174;49.058;8.524;2023-09-19T12:10:51;20.50;97.30
12223;DHT22;6174;49.058;8.524;2023-09-19T12:13:32;20.70;97.20
12223;DHT22;6174;49.058;8.524;2023-09-19T12:16:00;20.80;97.90
12223;DHT22;6174;49.058;8.524;2023-09-19T12:18:29;21.00;96.40
12223;DHT22;6174;49.058;8.524;2023-09-19T12:20:58;21.10;96.80
12223;DHT22;6174;49.058;8.524;2023-09-19T12:23:37;21.20;96.10
12223;DHT22;6174;49.058;8.524;2023-09-19T12:26:06;21.40;94.00
12223;DHT22;6174;49.058;8.524;2023-09-19T12:28:41;21.50;95.50
12223;DHT22;6174;49.058;8.524;2023-09-19T12:31:08;21.70;95.40
12223;DHT22;6174;49.058;8.524;2023-09-19T12:33:42;21.80;95.20
12223;DHT22;6174;49.058;8.524;2023-09-19T12:36:20;22.00;95.40
12223;DHT22;6174;49.058;8.524;2023-09-19T12:38:51;22.10;94.60
12223;DHT22;6174;49.058;8.524;2023-09-19T12:41:27;22.20;93.60
12223;DHT22;6174;49.058;8.524;2023-09-19T12:43:54;22.30;93.80
12223;DHT22;6174;49.058;8.524;2023-09-19T12:46:39;22.40;93.60
12223;DHT22;6174;49.058;8.524;2023-09-19T12:49:24;22.20;91.50
12223;DHT22;6174;49.058;8.524;2023-09-19T12:51:54;21.90;92.30
12223;DHT22;6174;49.058;8.524;2023-09-19T12:54:25;22.00;93.10
12223;DHT22;6174;49.058;8.524;2023-09-19T12:56:52;22.10;92.90
12223;DHT22;6174;49.058;8.524;2023-09-19T12:59:37;22.20;91.90
12223;DHT22;6174;49.058;8.524;2023-09-19T13:02:06;22.20;92.70
12223;DHT22;6174;49.058;8.524;2023-09-19T13:04:53;22.10;92.70
12223;DHT22;6174;49.058;8.524;2023-09-19T13:07:40;22.20;92.60
12223;DHT22;6174;49.058;8.524;2023-09-19T13:10:09;22.30;92.70
12223;DHT22;6174;49.058;8.524;2023-09-19T13:12:42;22.30;91.40
12223;DHT22;6174;49.058;8.524;2023-09-19T13:15:13;22.40;91.80
12223;DHT22;6174;49.058;8.524;2023-09-19T13:17:44;22.60;91.90
12223;DHT22;6174;49.058;8.524;2023-09-19T13:20:23;22.70;91.00
12223;DHT22;6174;49.058;8.524;2023-09-19T13:22:54;22.70;91.80
12223;DHT22;6174;49.058;8.524;2023-09-19T13:25:25;22.40;90.10
12223;DHT22;6174;49.058;8.524;2023-09-19T13:27:55;22.30;90.90
12223;DHT22;6174;49.058;8.524;2023-09-19T13:30:23;22.00;91.10
12223;DHT22;6174;49.058;8.524;2023-09-19T13:32:51;22.20;92.00
12223;DHT22;6174;49.058;8.524;2023-09-19T13:35:19;22.30;91.30
12223;DHT22;6174;49.058;8.524;2023-09-19T13:37:47;22.50;91.60
12223;DHT22;6174;49.058;8.524;2023-09-19T13:40:17;22.50;90.70
12223;DHT22;6174;49.058;8.524;2023-09-19T13:42:44;22.50;90.30
12223;DHT22;6174;49.058;8.524;2023-09-19T13:45:11;22.40;90.40
12223;DHT22;6174;49.058;8.524;2023-09-19T13:47:44;22.40;91.40
12223;DHT22;6174;49.058;8.524;2023-09-19T13:50:19;22.30;91.10
12223;DHT22;6174;49.058;8.524;2023-09-19T13:52:50;22.30;92.30
12223;DHT22;6174;49.058;8.524;2023-09-19T13:55:20;22.20;91.90
12223;DHT22;6174;49.058;8.524;2023-09-19T13:57:47;22.10;91.80
12223;DHT22;6174;49.058;8.524;2023-09-19T14:00:16;22.10;92.30
12223;DHT22;6174;49.058;8.524;2023-09-19T14:02:46;22.20;91.50
12223;DHT22;6174;49.058;8.524;2023-09-19T14:05:14;22.20;91.00
12223;DHT22;6174;49.058;8.524;2023-09-19T14:07:42;22.30;90.60
12223;DHT22;6174;49.058;8.524;2023-09-19T14:10:11;22.20;90.30
12223;DHT22;6174;49.058;8.524;2023-09-19T14:12:38;22.10;90.40
12223;DHT22;6174;49.058;8.524;2023-09-19T14:15:07;22.10;90.50
12223;DHT22;6174;49.058;8.524;2023-09-19T14:17:34;22.10;90.50
12223;DHT22;6174;49.058;8.524;2023-09-19T14:20:03;22.10;90.70
12223;DHT22;6174;49.058;8.524;2023-09-19T14:22:32;22.10;90.90
12223;DHT22;6174;49.058;8.524;2023-09-19T14:25:16;22.00;90.90
12223;DHT22;6174;49.058;8.524;2023-09-19T14:27:54;22.10;90.90
12223;DHT22;6174;49.058;8.524;2023-09-19T14:30:47;22.20;90.50
12223;DHT22;6174;49.058;8.524;2023-09-19T14:33:14;22.20;90.40
12223;DHT22;6174;49.058;8.524;2023-09-19T14:35:55;22.30;90.10
12223;DHT22;6174;49.058;8.524;2023-09-19T14:38:28;22.30;90.40
12223;DHT22;6174;49.058;8.524;2023-09-19T14:41:05;22.60;91.40
12223;DHT22;6174;49.058;8.524;2023-09-19T14:43:51;22.60;90.00
12223;DHT22;6174;49.058;8.524;2023-09-19T14:46:38;22.60;89.20
12223;DHT22;6174;49.058;8.524;2023-09-19T14:49:24;22.60;89.70
12223;DHT22;6174;49.058;8.524;2023-09-19T14:52:00;22.60;89.70
12223;DHT22;6174;49.058;8.524;2023-09-19T14:54:29;22.60;89.50
12223;DHT22;6174;49.058;8.524;2023-09-19T14:56:57;22.60;90.40
12223;DHT22;6174;49.058;8.524;2023-09-19T14:59:30;22.70;90.70
12223;DHT22;6174;49.058;8.524;2023-09-19T15:01:57;22.70;88.60
12223;DHT22;6174;49.058;8.524;2023-09-19T15:04:25;22.60;89.00
12223;DHT22;6174;49.058;8.524;2023-09-19T15:06:53;22.60;89.00
12223;DHT22;6174;49.058;8.524;2023-09-19T15:09:20;22.60;88.70
12223;DHT22;6174;49.058;8.524;2023-09-19T15:11:57;22.60;88.80
12223;DHT22;6174;49.058;8.524;2023-09-19T15:14:26;22.60;89.80
12223;DHT22;6174;49.058;8.524;2023-09-19T15:16:55;22.50;89.50
12223;DHT22;6174;49.058;8.524;2023-09-19T15:19:22;22.60;90.10
12223;DHT22;6174;49.058;8.524;2023-09-19T15:21:49;22.60;89.60
12223;DHT22;6174;49.058;8.524;2023-09-19T15:24:16;22.60;90.30
12223;DHT22;6174;49.058;8.524;2023-09-19T15:26:43;22.60;89.50
12223;DHT22;6174;49.058;8.524;2023-09-19T15:29:13;22.50;88.80
12223;DHT22;6174;49.058;8.524;2023-09-19T15:31:40;22.50;89.70
12223;DHT22;6174;49.058;8.524;2023-09-19T15:34:07;22.50;88.80
12223;DHT22;6174;49.058;8.524;2023-09-19T15:36:34;22.40;90.40
12223;DHT22;6174;49.058;8.524;2023-09-19T15:39:02;22.40;90.00
12223;DHT22;6174;49.058;8.524;2023-09-19T15:41:34;22.30;90.60
12223;DHT22;6174;49.058;8.524;2023-09-19T15:44:03;22.20;90.60
12223;DHT22;6174;49.058;8.524;2023-09-19T15:46:32;22.10;91.00
12223;DHT22;6174;49.058;8.524;2023-09-19T15:49:00;22.00;91.60
12223;DHT22;6174;49.058;8.524;2023-09-19T15:51:27;22.00;91.00
12223;DHT22;6174;49.058;8.524;2023-09-19T15:53:55;22.00;91.70
12223;DHT22;6174;49.058;8.524;2023-09-19T15:56:23;21.90;91.70
12223;DHT22;6174;49.058;8.524;2023-09-19T15:58:51;21.90;91.70
12223;DHT22;6174;49.058;8.524;2023-09-19T16:01:19;21.90;92.10
12223;DHT22;6174;49.058;8.524;2023-09-19T16:03:49;21.90;92.90
12223;DHT22;6174;49.058;8.524;2023-09-19T16:06:19;21.80;92.20
12223;DHT22;6174;49.058;8.524;2023-09-19T16:08:48;21.80;93.10
12223;DHT22;6174;49.058;8.524;2023-09-19T16:11:15;21.70;93.20
12223;DHT22;6174;49.058;8.524;2023-09-19T16:13:44;21.70;93.70
12223;DHT22;6174;49.058;8.524;2023-09-19T16:16:11;21.70;93.80
12223;DHT22;6174;49.058;8.524;2023-09-19T16:18:44;21.70;94.60
12223;DHT22;6174;49.058;8.524;2023-09-19T16:21:13;21.60;94.70
12223;DHT22;6174;49.058;8.524;2023-09-19T16:23:40;21.50;94.30
12223;DHT22;6174;49.058;8.524;2023-09-19T16:26:08;21.60;94.90
12223;DHT22;6174;49.058;8.524;2023-09-19T16:28:36;21.60;94.60
12223;DHT22;6174;49.058;8.524;2023-09-19T16:31:03;21.60;94.50
12223;DHT22;6174;49.058;8.524;2023-09-19T16:33:32;21.60;94.70
12223;DHT22;6174;49.058;8.524;2023-09-19T16:35:59;21.60;95.80
12223;DHT22;6174;49.058;8.524;2023-09-19T16:38:30;21.60;94.00
12223;DHT22;6174;49.058;8.524;2023-09-19T16:40:58;21.60;94.40
12223;DHT22;6174;49.058;8.524;2023-09-19T16:43:26;21.60;94.90
12223;DHT22;6174;49.058;8.524;2023-09-19T16:45:53;21.60;94.90
12223;DHT22;6174;49.058;8.524;2023-09-19T16:48:20;21.60;94.80
12223;DHT22;6174;49.058;8.524;2023-09-19T16:50:48;21.50;94.60
12223;DHT22;6174;49.058;8.524;2023-09-19T16:53:15;21.50;95.30
12223;DHT22;6174;49.058;8.524;2023-09-19T16:55:44;21.50;96.40
12223;DHT22;6174;49.058;8.524;2023-09-19T16:58:11;21.40;96.40
12223;DHT22;6174;49.058;8.524;2023-09-19T17:00:38;21.40;96.20
12223;DHT22;6174;49.058;8.524;2023-09-19T17:03:05;21.30;97.10
12223;DHT22;6174;49.058;8.524;2023-09-19T17:05:33;21.30;97.10
12223;DHT22;6174;49.058;8.524;2023-09-19T17:08:05;21.20;97.00
12223;DHT22;6174;49.058;8.524;2023-09-19T17:10:32;21.10;97.30
12223;DHT22;6174;49.058;8.524;2023-09-19T17:13:01;21.10;97.20
12223;DHT22;6174;49.058;8.524;2023-09-19T17:15:32;21.10;97.60
12223;DHT22;6174;49.058;8.524;2023-09-19T17:17:59;21.00;97.90
12223;DHT22;6174;49.058;8.524;2023-09-19T17:20:26;21.00;97.90
12223;DHT22;6174;49.058;8.524;2023-09-19T17:22:53;21.00;98.00
12223;DHT22;6174;49.058;8.524;2023-09-19T17:25:20;21.00;98.60
12223;DHT22;6174;49.058;8.524;2023-09-19T17:27:48;21.00;98.90
12223;DHT22;6174;49.058;8.524;2023-09-19T17:30:17;20.80;99.30
12223;DHT22;6174;49.058;8.524;2023-09-19T17:32:44;20.80;99.90
12223;DHT22;6174;49.058;8.524;2023-09-19T17:35:13;20.70;99.80
12223;DHT22;6174;49.058;8.524;2023-09-19T17:37:43;20.70;99.90
12223;DHT22;6174;49.058;8.524;2023-09-19T17:40:11;20.70;99.90
12223;DHT22;6174;49.058;8.524;2023-09-19T17:42:38;20.50;99.90
12223;DHT22;6174;49.058;8.524;2023-09-19T17:45:08;20.50;99.90
12223;DHT22;6174;49.058;8.524;2023-09-19T17:47:43;20.40;99.90
12223;DHT22;6174;49.058;8.524;2023-09-19T17:50:10;20.40;99.90
12223;DHT22;6174;49.058;8.524;2023-09-19T17:52:38;20.30;99.90
12223;DHT22;6174;49.058;8.524;2023-09-19T18:06:55;20.10;99.90
12223;DHT22;6174;49.058;8.524;2023-09-19T18:09:21;20.00;99.90
12223;DHT22;6174;49.058;8.524;2023-09-19T18:11:48;19.90;99.90
12223;DHT22;6174;49.058;8.524;2023-09-19T18:14:15;19.80;99.90
12223;DHT22;6174;49.058;8.524;2023-09-19T18:16:43;19.80;99.90
12223;DHT22;6174;49.058;8.524;2023-09-19T18:19:10;19.70;99.90
12223;DHT22;6174;49.058;8.524;2023-09-19T18:21:38;19.70;99.90
12223;DHT22;6174;49.058;8.524;2023-09-19T18:24:08;19.60;99.90
12223;DHT22;6174;49.058;8.524;2023-09-19T18:26:39;19.50;99.90
12223;DHT22;6174;49.058;8.524;2023-09-19T18:29:07;19.50;99.90
12223;DHT22;6174;49.058;8.524;2023-09-19T18:31:35;19.30;99.90
12223;DHT22;6174;49.058;8.524;2023-09-19T18:34:02;19.20;99.90
12223;DHT22;6174;49.058;8.524;2023-09-19T18:36:29;19.20;99.90
12223;DHT22;6174;49.058;8.524;2023-09-19T18:38:56;19.20;99.90
12223;DHT22;6174;49.058;8.524;2023-09-19T18:41:26;19.10;99.90
12223;DHT22;6174;49.058;8.524;2023-09-19T18:43:53;19.00;99.90
12223;DHT22;6174;49.058;8.524;2023-09-19T18:46:20;18.90;99.90
12223;DHT22;6174;49.058;8.524;2023-09-19T18:48:47;19.00;99.90
12223;DHT22;6174;49.058;8.524;2023-09-19T18:51:14;18.80;99.90
12223;DHT22;6174;49.058;8.524;2023-09-19T18:53:43;18.60;99.90
12223;DHT22;6174;49.058;8.524;2023-09-19T18:56:12;18.60;99.90
12223;DHT22;6174;49.058;8.524;2023-09-19T18:58:41;18.60;99.90
12223;DHT22;6174;49.058;8.524;2023-09-19T19:01:10;18.70;99.90
12223;DHT22;6174;49.058;8.524;2023-09-19T19:03:37;18.70;99.90
12223;DHT22;6174;49.058;8.524;2023-09-19T19:06:05;18.80;99.90
12223;DHT22;6174;49.058;8.524;2023-09-19T19:08:32;18.80;99.90
12223;DHT22;6174;49.058;8.524;2023-09-19T19:10:59;19.20;99.90
12223;DHT22;6174;49.058;8.524;2023-09-19T19:13:26;18.90;99.90
12223;DHT22;6174;49.058;8.524;2023-09-19T19:15:58;18.90;99.90
12223;DHT22;6174;49.058;8.524;2023-09-19T19:18:26;19.00;99.90
12223;DHT22;6174;49.058;8.524;2023-09-19T19:20:58;19.00;99.90
12223;DHT22;6174;49.058;8.524;2023-09-19T19:23:25;19.00;99.90
12223;DHT22;6174;49.058;8.524;2023-09-19T19:25:56;19.00;99.90
12223;DHT22;6174;49.058;8.524;2023-09-19T19:28:25;19.00;99.90
12223;DHT22;6174;49.058;8.524;2023-09-19T19:30:52;19.00;99.90
12223;DHT22;6174;49.058;8.524;2023-09-19T19:33:20;19.00;99.90
12223;DHT22;6174;49.058;8.524;2023-09-19T19:35:49;19.00;99.90
12223;DHT22;6174;49.058;8.524;2023-09-19T19:38:16;19.00;99.90
12223;DHT22;6174;49.058;8.524;2023-09-19T19:40:45;19.00;99.90
12223;DHT22;6174;49.058;8.524;2023-09-19T19:43:14;19.00;99.90
12223;DHT22;6174;49.058;8.524;2023-09-19T19:45:41;19.00;99.90
12223;DHT22;6174;49.058;8.524;2023-09-19T19:48:07;19.00;99.90
12223;DHT22;6174;49.058;8.524;2023-09-19T19:50:38;19.00;99.90
12223;DHT22;6174;49.058;8.524;2023-09-19T19:53:07;19.00;99.90
12223;DHT22;6174;49.058;8.524;2023-09-19T19:55:33;19.10;99.90
12223;DHT22;6174;49.058;8.524;2023-09-19T19:58:00;19.00;99.90
12223;DHT22;6174;49.058;8.524;2023-09-19T20:00:29;19.00;99.90
12223;DHT22;6174;49.058;8.524;2023-09-19T20:02:57;18.90;99.90
12223;DHT22;6174;49.058;8.524;2023-09-19T20:05:24;18.90;99.90
12223;DHT22;6174;49.058;8.524;2023-09-19T20:07:53;18.80;99.90
12223;DHT22;6174;49.058;8.524;2023-09-19T20:10:19;18.80;99.90
12223;DHT22;6174;49.058;8.524;2023-09-19T20:12:48;18.70;99.90
12223;DHT22;6174;49.058;8.524;2023-09-19T20:15:16;18.60;99.90
12223;DHT22;6174;49.058;8.524;2023-09-19T20:17:43;18.50;99.90
12223;DHT22;6174;49.058;8.524;2023-09-19T20:20:10;18.50;99.90
12223;DHT22;6174;49.058;8.524;2023-09-19T20:22:40;18.50;99.90
12223;DHT22;6174;49.058;8.524;2023-09-19T20:25:09;18.50;99.90
12223;DHT22;6174;49.058;8.524;2023-09-19T20:27:38;18.50;99.90
12223;DHT22;6174;49.058;8.524;2023-09-19T20:30:07;18.60;99.90
12223;DHT22;6174;49.058;8.524;2023-09-19T20:32:35;18.60;99.90
12223;DHT22;6174;49.058;8.524;2023-09-19T20:35:02;18.60;99.90
12223;DHT22;6174;49.058;8.524;2023-09-19T20:37:29;18.50;99.90
12223;DHT22;6174;49.058;8.524;2023-09-19T20:39:56;18.50;99.90
12223;DHT22;6174;49.058;8.524;2023-09-19T20:42:24;18.50;99.90
12223;DHT22;6174;49.058;8.524;2023-09-19T20:44:50;18.60;99.90
12223;DHT22;6174;49.058;8.524;2023-09-19T20:47:20;18.40;99.90
12223;DHT22;6174;49.058;8.524;2023-09-19T20:49:47;18.50;99.90
12223;DHT22;6174;49.058;8.524;2023-09-19T20:52:14;18.30;99.90
12223;DHT22;6174;49.058;8.524;2023-09-19T20:54:41;18.40;99.90
12223;DHT22;6174;49.058;8.524;2023-09-19T20:57:08;18.40;99.90
12223;DHT22;6174;49.058;8.524;2023-09-19T20:59:36;18.20;99.90
12223;DHT22;6174;49.058;8.524;2023-09-19T21:02:04;18.30;99.90
12223;DHT22;6174;49.058;8.524;2023-09-19T21:04:31;18.30;99.90
12223;DHT22;6174;49.058;8.524;2023-09-19T21:06:58;18.20;99.90
12223;DHT22;6174;49.058;8.524;2023-09-19T21:09:25;18.10;99.90
12223;DHT22;6174;49.058;8.524;2023-09-19T21:11:53;18.10;99.90
12223;DHT22;6174;49.058;8.524;2023-09-19T21:14:20;18.10;99.90
12223;DHT22;6174;49.058;8.524;2023-09-19T21:16:48;18.10;99.90
12223;DHT22;6174;49.058;8.524;2023-09-19T21:21:52;18.10;99.90
12223;DHT22;6174;49.058;8.524;2023-09-19T21:24:27;18.00;99.90
12223;DHT22;6174;49.058;8.524;2023-09-19T21:26:57;18.00;99.90
12223;DHT22;6174;49.058;8.524;2023-09-19T21:29:26;18.10;99.90
12223;DHT22;6174;49.058;8.524;2023-09-19T21:31:56;18.00;99.90
12223;DHT22;6174;49.058;8.524;2023-09-19T21:34:23;18.00;99.90
12223;DHT22;6174;49.058;8.524;2023-09-19T21:36:50;17.90;99.90
12223;DHT22;6174;49.058;8.524;2023-09-19T21:39:19;17.90;99.90
12223;DHT22;6174;49.058;8.524;2023-09-19T21:41:47;17.90;99.90
12223;DHT22;6174;49.058;8.524;2023-09-19T21:44:17;17.90;99.90
12223;DHT22;6174;49.058;8.524;2023-09-19T21:46:46;17.80;99.90
12223;DHT22;6174;49.058;8.524;2023-09-19T21:49:15;17.80;99.90
12223;DHT22;6174;49.058;8.524;2023-09-19T21:51:44;17.80;99.90
12223;DHT22;6174;49.058;8.524;2023-09-19T21:54:12;17.80;99.90
12223;DHT22;6174;49.058;8.524;2023-09-19T21:56:44;17.80;99.90
12223;DHT22;6174;49.058;8.524;2023-09-19T21:59:14;17.70;99.90
12223;DHT22;6174;49.058;8.524;2023-09-19T22:01:43;17.70;99.90
12223;DHT22;6174;49.058;8.524;2023-09-19T22:04:10;17.60;99.90
12223;DHT22;6174;49.058;8.524;2023-09-19T22:06:41;17.70;99.90
12223;DHT22;6174;49.058;8.524;2023-09-19T22:09:08;17.60;99.90
12223;DHT22;6174;49.058;8.524;2023-09-19T22:11:35;17.70;99.90
12223;DHT22;6174;49.058;8.524;2023-09-19T22:14:04;17.70;99.90
12223;DHT22;6174;49.058;8.524;2023-09-19T22:16:33;17.70;99.90
12223;DHT22;6174;49.058;8.524;2023-09-19T22:19:01;17.60;99.90
12223;DHT22;6174;49.058;8.524;2023-09-19T22:21:29;17.60;99.90
12223;DHT22;6174;49.058;8.524;2023-09-19T22:24:05;17.60;99.90
12223;DHT22;6174;49.058;8.524;2023-09-19T22:26:36;17.60;99.90
12223;DHT22;6174;49.058;8.524;2023-09-19T22:29:04;17.60;99.90
